.
WxDataArchive / Data Records for 2008-01-10
2008-01-09 January 2008 2008-01-11

Data Records for Thursday, 10 January 2008

Time	Temp	Chill	HIndex	Humid	Dewpt	 Wind 	HiWind	WindDir	Rain 	Barom 
-----	----	-----	------	-----	-----	------	------	-------	-----	----- 
00:00	30.3	30.3	30.3	94	28.8	0	0	---	0.00	30.123 
00:05	30.1	30.1	30.1	94	28.6	0	0	---	0.00	30.120 
00:10	30.1	30.1	30.1	94	28.6	0	0	---	0.00	30.120 
00:15	30.3	30.3	30.3	94	28.8	0	0	---	0.00	30.117 
00:20	30.4	30.4	30.4	95	29.1	0	0	---	0.00	30.111 
00:25	30.4	30.4	30.4	95	29.1	0	0	---	0.00	30.110 
00:30	30.4	30.4	30.4	95	29.1	0	0	---	0.00	30.107 
00:35	30.3	30.3	30.3	95	29.0	0	0	---	0.00	30.105 
00:40	30.4	30.4	30.4	95	29.1	0	0	---	0.00	30.102 
00:45	30.6	30.6	30.6	95	29.3	0	0	---	0.00	30.098 
00:50	30.6	30.6	30.6	95	29.3	0	0	---	0.00	30.094 
00:55	30.7	30.7	30.7	95	29.4	0	0	---	0.00	30.092 
01:00	30.9	30.9	30.9	95	29.6	0	0	---	0.00	30.088 
01:05	31.0	31.0	31.0	95	29.7	0	0	---	0.00	30.086 
01:10	31.2	31.2	31.2	95	29.9	0	0	---	0.00	30.085 
01:15	31.2	31.2	31.2	95	29.9	0	0	---	0.00	30.081 
01:20	31.2	31.2	31.2	95	29.9	0	0	---	0.00	30.082 
01:25	31.2	31.2	31.2	95	29.9	0	0	---	0.00	30.081 
01:30	31.3	31.3	31.3	95	30.0	0	1	248	0.00	30.076 
01:35	31.6	31.6	31.6	96	30.6	0	2	248	0.00	30.070 
01:40	31.8	31.8	31.8	95	30.5	1	2	248	0.00	30.069 
01:45	31.8	31.8	31.8	95	30.5	0	1	248	0.00	30.069 
01:50	31.9	31.9	31.9	95	30.6	0	1	248	0.00	30.066 
01:55	31.9	31.9	31.9	95	30.6	0	2	248	0.00	30.063 
02:00	31.9	31.9	31.9	95	30.6	1	2	248	0.00	30.060 
02:05	31.9	31.9	31.9	95	30.6	0	1	248	0.00	30.056 
02:10	31.9	31.9	31.9	95	30.6	1	3	248	0.00	30.054 
02:15	31.9	31.9	31.9	95	30.6	1	2	248	0.00	30.055 
02:20	31.8	31.8	31.8	95	30.5	0	1	248	0.00	30.054 
02:25	31.8	31.8	31.8	95	30.5	0	1	248	0.00	30.053 
02:30	31.6	31.6	31.6	95	30.3	0	1	248	0.00	30.053 
02:35	31.6	31.6	31.6	95	30.3	0	1	248	0.00	30.056 
02:40	31.5	31.5	31.5	95	30.2	0	0	---	0.00	30.061 
02:45	31.3	31.3	31.3	95	30.0	0	0	---	0.00	30.067 
02:50	31.2	31.2	31.2	95	29.9	0	0	---	0.00	30.069 
02:55	31.0	31.0	31.0	95	29.7	0	0	---	0.00	30.070 
03:00	30.9	30.9	30.9	95	29.6	0	0	---	0.00	30.071 
03:05	30.9	30.9	30.9	95	29.6	0	1	248	0.00	30.072 
03:10	30.9	30.9	30.9	95	29.6	0	1	248	0.00	30.073 
03:15	31.0	31.0	31.0	95	29.7	0	1	248	0.00	30.074 
03:20	31.2	31.2	31.2	95	29.9	0	1	248	0.00	30.073 
03:25	31.3	31.3	31.3	95	30.0	0	1	248	0.00	30.071 
03:30	31.5	31.5	31.5	95	30.2	0	1	248	0.00	30.070 
03:35	31.6	31.6	31.6	95	30.3	0	1	248	0.00	30.070 
03:40	31.6	31.6	31.6	95	30.3	0	1	248	0.00	30.071 
03:45	31.6	31.6	31.6	95	30.3	0	1	248	0.00	30.071 
03:50	31.8	31.8	31.8	95	30.5	0	1	248	0.00	30.072 
03:55	31.8	31.8	31.8	95	30.5	0	1	248	0.00	30.073 
04:00	31.8	31.8	31.8	95	30.5	0	2	248	0.00	30.072 
04:05	31.8	31.8	31.8	95	30.5	0	1	248	0.00	30.071 
04:10	31.8	31.8	31.8	95	30.5	0	0	---	0.00	30.070 
04:15	31.6	31.6	31.6	95	30.3	0	0	---	0.00	30.067 
04:20	31.6	31.6	31.6	95	30.3	0	0	---	0.00	30.062 
04:25	31.6	31.6	31.6	95	30.3	0	0	---	0.00	30.059 
04:30	31.8	31.8	31.8	95	30.5	0	1	248	0.00	30.055 
04:35	31.9	31.9	31.9	95	30.6	0	1	248	0.00	30.054 
04:40	32.1	32.1	32.1	95	30.8	0	1	248	0.00	30.052 
04:45	32.1	32.1	32.1	95	30.8	0	1	248	0.00	30.049 
04:50	32.2	32.2	32.2	94	30.7	0	2	248	0.00	30.047 
04:55	32.4	32.4	32.4	94	30.9	0	2	248	0.00	30.048 
05:00	32.5	32.5	32.5	94	31.0	0	2	158	0.00	30.049 
05:05	32.5	32.5	32.5	94	31.0	0	2	158	0.00	30.052 
05:10	32.5	32.5	32.5	94	31.0	1	2	135	0.00	30.049 
05:15	32.7	32.7	32.7	93	30.9	1	2	135	0.00	30.049 
05:20	32.5	32.5	32.5	93	30.7	1	2	135	0.00	30.047 
05:25	32.5	32.5	32.5	93	30.7	0	1	135	0.00	30.047 
05:30	32.4	32.4	32.4	93	30.6	0	2	135	0.00	30.047 
05:35	32.2	32.2	32.2	93	30.4	0	1	135	0.00	30.045 
05:40	32.1	32.1	32.1	93	30.3	0	1	135	0.00	30.044 
05:45	31.8	31.8	31.8	93	30.0	0	2	135	0.00	30.042 
05:50	31.8	31.8	31.8	93	30.0	0	2	135	0.00	30.042 
05:55	31.6	31.6	31.6	93	29.8	0	1	135	0.00	30.040 
06:00	31.6	31.6	31.6	93	29.8	0	2	135	0.00	30.038 
06:05	31.6	31.6	31.6	93	29.8	0	2	135	0.00	30.039 
06:10	31.5	31.5	31.5	93	29.7	1	3	135	0.00	30.032 
06:15	31.5	31.5	31.5	94	30.0	2	4	135	0.00	30.030 
06:20	31.5	31.5	31.5	94	30.0	2	3	112	0.00	30.029 
06:25	31.5	31.5	31.5	94	30.0	2	4	90	0.00	30.029 
06:30	31.5	31.5	31.5	94	30.0	2	4	90	0.00	30.028 
06:35	31.5	31.5	31.5	94	30.0	2	5	90	0.00	30.028 
06:40	31.3	31.3	31.3	94	29.8	2	5	90	0.00	30.026 
06:45	31.3	31.3	31.3	94	29.8	1	3	90	0.00	30.025 
06:50	31.5	31.5	31.5	94	30.0	2	4	112	0.00	30.023 
06:55	31.5	31.5	31.5	94	30.0	2	4	112	0.00	30.018 
07:00	31.5	31.5	31.5	94	30.0	2	4	90	0.00	30.020 
07:05	31.5	31.5	31.5	94	30.0	2	5	90	0.00	30.022 
07:10	31.6	31.6	31.6	94	30.1	2	6	90	0.00	30.016 
07:15	31.6	31.6	31.6	94	30.1	2	4	90	0.00	30.015 
07:20	31.6	31.6	31.6	94	30.1	2	5	90	0.00	30.015 
07:25	31.6	31.6	31.6	94	30.1	2	4	90	0.00	30.016 
07:30	31.6	31.6	31.6	94	30.1	2	5	90	0.00	30.015 
07:35	31.5	31.5	31.5	94	30.0	1	3	90	0.00	30.014 
07:40	31.5	31.5	31.5	94	30.0	1	3	90	0.00	30.012 
07:45	31.5	31.5	31.5	94	30.0	1	2	90	0.00	30.013 
07:50	31.6	31.6	31.6	94	30.1	1	3	90	0.00	30.015 
07:55	31.8	31.8	31.8	94	30.3	2	5	90	0.00	30.014 
08:00	31.8	31.8	31.8	94	30.3	2	5	90	0.00	30.011 
08:05	31.9	31.9	31.9	94	30.4	2	4	90	0.00	30.012 
08:10	32.1	32.1	32.1	94	30.6	1	4	90	0.00	30.012 
08:15	32.1	32.1	32.1	94	30.6	2	4	112	0.00	30.007 
08:20	32.2	32.2	32.2	94	30.7	2	4	90	0.00	30.000 
08:25	32.4	32.4	32.4	94	30.9	2	4	90	0.00	29.997 
08:30	32.5	32.5	32.5	93	30.7	2	6	90	0.00	29.994 
08:35	32.7	32.7	32.7	93	30.9	3	6	112	0.00	29.993 
08:40	32.8	32.8	32.8	93	31.0	3	9	90	0.00	29.990 
08:45	32.9	32.9	32.9	93	31.1	2	4	90	0.00	29.994 
08:50	33.1	33.1	33.1	93	31.3	3	5	90	0.00	29.996 
08:55	33.2	33.2	33.2	92	31.1	2	4	90	0.00	29.996 
09:00	33.4	33.4	33.4	92	31.3	2	5	90	0.00	29.995 
09:05	33.4	33.4	33.4	92	31.3	3	6	90	0.00	29.991 
09:10	33.5	33.5	33.5	92	31.4	2	5	90	0.00	29.992 
09:15	33.5	33.5	33.5	92	31.4	3	6	90	0.00	29.985 
09:20	33.5	29.8	33.5	92	31.4	4	9	90	0.00	29.983 
09:25	33.7	33.7	33.7	92	31.6	3	9	90	0.01	29.982 
09:30	33.7	33.7	33.7	91	31.4	3	8	90	0.00	29.980 
09:35	33.8	33.8	33.8	91	31.5	3	7	90	0.00	29.980 
09:40	34.0	34.0	34.0	91	31.7	3	10	90	0.00	29.980 
09:45	34.3	34.3	34.3	91	32.0	3	9	112	0.00	29.980 
09:50	34.4	30.8	34.4	91	32.0	4	7	112	0.00	29.973 
09:55	34.7	34.7	34.7	90	32.1	3	7	112	0.00	29.967 
10:00	34.9	31.4	34.9	90	32.3	4	8	112	0.00	29.966 
10:05	35.0	30.6	35.0	89	32.1	5	11	112	0.00	29.962 
10:10	35.2	31.8	35.2	89	32.3	4	6	90	0.00	29.955 
10:15	35.5	31.2	35.5	89	32.6	5	9	90	0.00	29.950 
10:20	35.6	30.5	35.6	88	32.4	6	12	90	0.00	29.946 
10:25	35.9	31.7	35.9	88	32.7	5	12	90	0.00	29.943 
10:30	36.0	31.0	36.0	87	32.5	6	11	112	0.00	29.933 
10:35	36.2	32.9	36.2	87	32.7	4	10	112	0.00	29.931 
10:40	36.3	33.0	36.3	87	32.8	4	7	112	0.00	29.931 
10:45	36.8	36.8	36.8	87	33.3	3	9	90	0.00	29.925 
10:50	36.9	32.8	36.9	86	33.1	5	9	112	0.00	29.917 
10:55	37.0	32.9	37.0	85	32.9	5	10	112	0.00	29.913 
11:00	37.0	32.2	37.0	85	32.9	6	11	112	0.00	29.904 
11:05	37.0	32.9	37.0	85	32.9	5	11	112	0.00	29.900 
11:10	37.2	34.1	37.2	85	33.1	4	9	90	0.00	29.892 
11:15	37.3	33.3	37.3	84	32.9	5	9	112	0.00	29.890 
11:20	37.6	33.7	37.6	85	33.5	5	10	112	0.00	29.884 
11:25	37.9	34.0	37.9	84	33.5	5	10	112	0.00	29.884 
11:30	38.0	34.1	38.0	83	33.3	5	9	90	0.00	29.880 
11:35	38.2	34.4	38.2	84	33.8	5	11	112	0.00	29.867 
11:40	38.3	34.5	38.3	83	33.6	5	10	112	0.00	29.857 
11:45	38.3	34.5	38.3	83	33.6	5	12	112	0.00	29.859 
11:50	38.5	34.7	38.5	83	33.8	5	11	112	0.00	29.862 
11:55	38.6	35.7	38.6	83	33.9	4	8	112	0.00	29.866 
12:00	38.9	36.0	38.9	83	34.2	4	10	112	0.00	29.855 
12:05	39.2	36.4	39.2	83	34.5	4	9	112	0.00	29.848 
12:10	39.5	35.9	39.5	82	34.5	5	9	112	0.00	29.843 
12:15	39.6	36.9	39.6	82	34.6	4	7	90	0.00	29.845 
12:20	39.9	36.4	39.9	81	34.6	5	12	90	0.00	29.838 
12:25	40.1	36.6	40.1	81	34.7	5	10	112	0.00	29.831 
12:30	40.2	37.5	40.2	81	34.8	4	9	112	0.00	29.819 
12:35	40.3	36.8	40.3	79	34.3	5	8	90	0.00	29.815 
12:40	40.5	37.1	40.5	79	34.5	5	9	90	0.00	29.807 
12:45	40.6	38.0	40.6	78	34.3	4	10	112	0.00	29.803 
12:50	40.8	37.4	40.8	78	34.5	5	10	112	0.00	29.800 
12:55	40.8	37.4	40.8	77	34.2	5	12	112	0.00	29.797 
13:00	40.9	37.5	40.9	77	34.3	5	12	112	0.00	29.794 
13:05	40.8	37.4	40.8	77	34.2	5	12	90	0.00	29.786 
13:10	40.9	37.5	40.9	77	34.3	5	8	112	0.00	29.784 
13:15	40.9	36.8	40.9	77	34.3	6	11	112	0.00	29.782 
13:20	40.9	37.5	40.9	77	34.3	5	11	112	0.00	29.776 
13:25	40.9	37.5	40.9	78	34.6	5	10	112	0.00	29.770 
13:30	41.1	37.1	41.1	77	34.4	6	11	112	0.00	29.753 
13:35	41.2	36.6	41.2	78	34.9	7	15	112	0.00	29.738 
13:40	41.2	37.2	41.2	79	35.2	6	12	90	0.00	29.722 
13:45	41.3	36.7	41.3	77	34.6	7	15	112	0.00	29.708 
13:50	41.5	38.2	41.5	77	34.8	5	13	90	0.00	29.721 
13:55	41.5	37.5	41.5	76	34.5	6	12	112	0.00	29.719 
14:00	41.6	37.7	41.6	76	34.6	6	10	112	0.00	29.720 
14:05	41.5	36.9	41.5	75	34.2	7	13	112	0.00	29.715 
14:10	41.5	37.5	41.5	75	34.2	6	12	112	0.00	29.719 
14:15	41.5	37.5	41.5	75	34.2	6	10	112	0.00	29.722 
14:20	41.5	38.2	41.5	76	34.5	5	11	112	0.00	29.720 
14:25	41.5	38.2	41.5	76	34.5	5	10	112	0.00	29.715 
14:30	41.3	38.8	41.3	77	34.6	4	10	112	0.00	29.706 
14:35	41.3	37.3	41.3	77	34.6	6	10	112	0.00	29.702 
14:40	41.3	38.0	41.3	77	34.6	5	11	112	0.00	29.697 
14:45	41.3	37.3	41.3	77	34.6	6	12	112	0.00	29.704 
14:50	41.3	37.3	41.3	77	34.6	6	11	112	0.00	29.701 
14:55	41.3	38.8	41.3	77	34.6	4	9	112	0.00	29.706 
15:00	41.3	38.8	41.3	78	35.0	4	10	112	0.00	29.714 
15:05	41.3	41.3	41.3	79	35.3	3	6	112	0.00	29.707 
15:10	41.2	37.9	41.2	80	35.5	5	10	112	0.00	29.695 
15:15	41.1	38.6	41.1	81	35.7	4	9	112	0.00	29.693 
15:20	40.9	40.9	40.9	82	35.8	3	7	90	0.00	29.688 
15:25	40.8	38.2	40.8	82	35.7	4	12	112	0.00	29.675 
15:30	40.6	40.6	40.6	84	36.2	3	6	112	0.01	29.673 
15:35	40.5	37.9	40.5	84	36.1	4	8	90	0.00	29.665 
15:40	40.3	37.7	40.3	86	36.5	4	8	112	0.01	29.655 
15:45	40.1	36.6	40.1	86	36.3	5	14	112	0.01	29.643 
15:50	40.1	37.4	40.1	87	36.5	4	9	112	0.01	29.642 
15:55	39.9	36.4	39.9	87	36.4	5	10	90	0.01	29.631 
16:00	39.8	36.2	39.8	88	36.5	5	10	112	0.00	29.626 
16:05	39.8	35.5	39.8	88	36.5	6	12	90	0.00	29.617 
16:10	39.6	36.0	39.6	88	36.3	5	10	112	0.00	29.611 
16:15	39.6	34.7	39.6	88	36.3	7	12	90	0.00	29.601 
16:20	39.6	36.0	39.6	88	36.3	5	12	90	0.00	29.594 
16:25	39.6	35.3	39.6	89	36.6	6	14	112	0.00	29.595 
16:30	39.8	35.5	39.8	89	36.8	6	14	112	0.00	29.595 
16:35	39.8	36.2	39.8	89	36.8	5	12	112	0.00	29.597 
16:40	39.9	35.6	39.9	88	36.6	6	13	112	0.00	29.583 
16:45	39.9	35.6	39.9	89	36.9	6	11	90	0.01	29.580 
16:50	39.9	35.0	39.9	88	36.6	7	13	90	0.00	29.577 
16:55	39.9	37.2	39.9	89	36.9	4	13	112	0.00	29.577 
17:00	39.9	35.6	39.9	88	36.6	6	13	112	0.01	29.576 
17:05	39.8	35.5	39.8	89	36.8	6	13	112	0.00	29.565 
17:10	39.8	34.3	39.8	89	36.8	8	14	112	0.01	29.554 
17:15	39.8	35.5	39.8	89	36.8	6	11	90	0.00	29.548 
17:20	39.8	35.5	39.8	88	36.5	6	12	112	0.00	29.543 
17:25	39.8	35.5	39.8	88	36.5	6	10	112	0.00	29.539 
17:30	39.8	34.9	39.8	88	36.5	7	15	90	0.00	29.532 
17:35	39.9	35.6	39.9	88	36.6	6	10	112	0.00	29.531 
17:40	39.9	36.4	39.9	88	36.6	5	12	90	0.00	29.528 
17:45	39.8	36.2	39.8	88	36.5	5	11	112	0.00	29.518 
17:50	39.8	36.2	39.8	89	36.8	5	13	112	0.00	29.515 
17:55	39.6	35.3	39.6	90	36.9	6	17	112	0.02	29.505 
18:00	39.5	35.2	39.5	91	37.1	6	13	90	0.01	29.502 
18:05	39.5	34.5	39.5	91	37.1	7	13	112	0.01	29.500 
18:10	39.3	33.7	39.3	92	37.2	8	15	90	0.04	29.499 
18:15	39.3	34.9	39.3	92	37.2	6	14	112	0.02	29.488 
18:20	39.2	34.2	39.2	93	37.3	7	16	112	0.01	29.486 
18:25	39.2	34.2	39.2	93	37.3	7	13	90	0.00	29.476 
18:30	39.2	33.6	39.2	93	37.3	8	18	112	0.00	29.463 
18:35	39.2	34.2	39.2	94	37.6	7	16	112	0.00	29.459 
18:40	39.2	34.2	39.2	93	37.3	7	16	112	0.00	29.447 
18:45	39.3	34.3	39.3	93	37.4	7	14	90	0.00	29.441 
18:50	39.5	35.2	39.5	93	37.6	6	15	90	0.00	29.438 
18:55	39.5	35.2	39.5	93	37.6	6	14	112	0.00	29.436 
19:00	39.6	34.7	39.6	93	37.7	7	16	112	0.00	29.437 
19:05	39.6	35.3	39.6	93	37.7	6	11	112	0.00	29.440 
19:10	39.8	35.5	39.8	93	37.9	6	12	90	0.00	29.437 
19:15	39.9	35.0	39.9	93	38.0	7	14	112	0.00	29.423 
19:20	39.9	34.5	39.9	93	38.0	8	14	90	0.00	29.419 
19:25	39.9	36.4	39.9	93	38.0	5	10	112	0.00	29.418 
19:30	39.9	35.6	39.9	93	38.0	6	13	90	0.00	29.418 
19:35	40.1	36.6	40.1	93	38.2	5	14	112	0.00	29.417 
19:40	40.2	35.4	40.2	93	38.3	7	12	112	0.00	29.405 
19:45	40.2	40.2	40.2	93	38.3	3	9	112	0.00	29.408 
19:50	40.3	36.8	40.3	93	38.4	5	11	90	0.00	29.401 
19:55	40.5	37.9	40.5	94	38.9	4	9	112	0.00	29.403 
20:00	40.8	40.8	40.8	94	39.2	3	7	90	0.00	29.398 
20:05	40.9	36.8	40.9	94	39.3	6	11	112	0.00	29.388 
20:10	41.1	37.1	41.1	94	39.5	6	12	90	0.00	29.384 
20:15	41.1	38.6	41.1	94	39.5	4	9	112	0.00	29.381 
20:20	41.2	41.2	41.2	94	39.6	2	6	112	0.00	29.375 
20:25	41.6	41.6	41.6	95	40.3	3	6	112	0.00	29.377 
20:30	41.9	41.9	41.9	95	40.6	1	3	90	0.00	29.373 
20:35	42.2	42.2	42.2	95	40.9	2	5	112	0.00	29.372 
20:40	42.3	42.3	42.3	95	41.0	1	4	135	0.00	29.372 
20:45	42.5	42.5	42.5	95	41.2	1	2	135	0.00	29.370 
20:50	42.9	42.9	42.9	96	41.8	1	5	112	0.00	29.369 
20:55	43.5	43.5	43.5	96	42.4	3	6	112	0.00	29.364 
21:00	44.1	44.1	44.1	96	43.0	1	4	135	0.00	29.370 
21:05	44.5	44.5	44.5	96	43.4	1	4	112	0.00	29.356 
21:10	44.8	44.8	44.8	96	43.7	0	2	112	0.00	29.353 
21:15	45.4	45.4	45.4	96	44.3	1	4	112	0.00	29.349 
21:20	46.7	46.7	46.7	97	45.9	2	10	135	0.00	29.346 
21:25	48.0	46.6	48.0	97	47.2	4	11	112	0.00	29.342 
21:30	48.6	48.6	48.6	97	47.8	3	9	90	0.00	29.336 
21:35	48.9	48.9	48.9	96	47.8	3	9	90	0.00	29.336 
21:40	49.1	49.1	49.1	96	48.0	3	10	112	0.00	29.333 
21:45	49.4	49.4	49.4	96	48.3	2	6	90	0.00	29.332 
21:50	49.4	49.4	49.4	95	48.0	2	6	112	0.00	29.332 
21:55	49.5	49.5	49.5	95	48.1	1	6	112	0.00	29.332 
22:00	49.6	49.6	49.6	95	48.2	2	4	112	0.00	29.332 
22:05	49.6	49.6	49.6	95	48.2	2	7	90	0.00	29.330 
22:10	49.8	49.8	49.8	95	48.4	2	7	315	0.00	29.329 
22:15	50.1	50.1	50.1	94	48.4	2	5	270	0.00	29.330 
22:20	50.5	50.5	50.5	94	48.8	4	10	270	0.00	29.331 
22:25	50.8	50.8	50.8	92	48.6	5	16	248	0.00	29.327 
22:30	51.1	51.1	51.1	89	48.0	4	10	248	0.00	29.329 
22:35	51.3	51.3	51.3	86	47.3	5	13	248	0.00	29.328 
22:40	51.6	51.6	51.6	83	46.6	6	14	248	0.00	29.329 
22:45	51.7	51.7	51.7	81	46.1	7	18	248	0.00	29.327 
22:50	51.6	51.6	51.6	80	45.6	5	11	248	0.00	29.327 
22:55	51.4	51.4	51.4	80	45.4	5	15	248	0.00	29.325 
23:00	51.3	51.3	51.3	80	45.3	5	11	248	0.00	29.328 
23:05	51.1	51.1	51.1	80	45.1	5	11	248	0.00	29.327 
23:10	51.0	51.0	51.0	80	45.0	6	15	248	0.00	29.327 
23:15	51.0	51.0	51.0	81	45.4	5	10	248	0.00	29.329 
23:20	50.7	50.7	50.7	81	45.1	4	9	248	0.00	29.326 
23:25	50.4	50.4	50.4	80	44.5	5	11	248	0.00	29.326 
23:30	50.1	50.1	50.1	79	43.8	6	16	248	0.00	29.326 
23:35	49.8	47.4	49.8	80	43.9	6	13	270	0.00	29.325 
23:40	49.6	46.7	49.6	79	43.4	7	23	248	0.00	29.327 
23:45	49.4	46.5	49.4	79	43.2	7	14	270	0.00	29.328 
23:50	49.1	46.1	49.1	79	42.9	7	17	270	0.00	29.330 
23:55	48.8	46.2	48.8	79	42.6	6	11	270	0.00	29.328 

CoCoRaHS
IN-AL-39
A2 Web Hosting
Creative Commons License
GoDaddy
Look for:

loaded 2017-12-10 21:42:41 • last modified 2010-11-18 10:43:29
Privacy PolicyDisclaimer
• wx.awcolley.com is powered by PmWiki v.2002016 •
• all content (unless otherwise noted) © 2017 A W Colley